createdAt,value
2018-02-20T04:48:45.985Z,18.69
2018-02-20T04:49:45.927Z,18.70
2018-02-20T04:51:39.360Z,18.69
2018-02-20T04:52:39.304Z,18.65
2018-02-20T04:54:32.697Z,18.72
2018-02-20T04:55:32.689Z,18.70
2018-02-20T04:57:27.126Z,18.66
2018-02-20T04:58:27.082Z,18.70
2018-02-20T05:00:21.472Z,18.73
2018-02-20T05:01:21.481Z,18.82
2018-02-20T05:03:15.906Z,18.84
2018-02-20T05:04:15.939Z,18.73
2018-02-20T05:06:09.302Z,18.78
2018-02-20T05:07:09.254Z,18.80
2018-02-20T05:08:09.259Z,18.76
2018-02-20T05:09:09.263Z,18.82
2018-02-20T05:10:09.268Z,18.81
2018-02-20T05:11:09.272Z,18.80
2018-02-20T05:12:09.295Z,18.82
2018-02-20T05:13:09.283Z,18.78
2018-02-20T05:14:09.294Z,18.78
2018-02-20T05:15:09.290Z,18.76
2018-02-20T05:16:09.295Z,18.80
2018-02-20T05:17:09.300Z,18.73
2018-02-20T05:18:09.310Z,18.70
2018-02-20T05:19:09.313Z,18.75
2018-02-20T05:20:09.320Z,18.75
2018-02-20T05:21:09.322Z,18.82
2018-02-20T05:22:09.327Z,18.72
2018-02-20T05:23:09.329Z,18.73
2018-02-20T05:24:09.336Z,18.76
2018-02-20T05:25:09.347Z,18.90
2018-02-20T05:26:09.347Z,18.88
2018-02-20T05:27:09.352Z,18.87
2018-02-20T05:28:09.358Z,18.92
2018-02-20T05:29:09.361Z,18.91
2018-02-20T05:30:09.370Z,18.87
2018-02-20T05:31:09.373Z,18.98
2018-02-20T05:32:09.378Z,18.99
2018-02-20T05:33:09.386Z,19.02
2018-02-20T05:34:09.388Z,19.11
2018-02-20T05:35:09.396Z,19.10
2018-02-20T05:36:09.402Z,19.00
2018-02-20T05:37:09.415Z,19.02
2018-02-20T05:38:09.412Z,19.00
2018-02-20T05:39:09.418Z,19.06
2018-02-20T05:40:09.424Z,18.99
2018-02-20T05:41:09.430Z,19.07
2018-02-20T05:42:09.435Z,19.16
2018-02-20T05:43:09.440Z,19.25
2018-02-20T05:44:09.448Z,19.39
2018-02-20T05:45:09.453Z,19.29
2018-02-20T05:46:09.460Z,19.41
2018-02-20T05:47:09.484Z,19.37
2018-02-20T05:48:09.474Z,19.28
2018-02-20T05:49:09.477Z,19.39
2018-02-20T05:50:09.483Z,19.41
2018-02-20T05:51:09.493Z,19.46
2018-02-20T05:52:09.497Z,19.41
2018-02-20T05:53:09.504Z,19.43
2018-02-20T05:54:09.509Z,19.50
2018-02-20T05:55:09.516Z,19.48
2018-02-20T05:56:09.534Z,19.47
2018-02-20T05:57:09.530Z,19.41
2018-02-20T05:58:09.538Z,19.48
2018-02-20T05:59:09.545Z,19.47
2018-02-20T06:00:09.550Z,19.47
2018-02-20T06:01:09.557Z,19.40
2018-02-20T06:02:09.562Z,19.47
2018-02-20T06:03:09.573Z,19.46
2018-02-20T06:04:09.579Z,19.48
2018-02-20T06:05:09.585Z,19.50
2018-02-20T06:06:09.594Z,19.50
2018-02-20T06:07:09.598Z,19.50
2018-02-20T06:08:09.616Z,19.44
2018-02-20T06:09:09.614Z,19.50
2018-02-20T06:10:09.637Z,19.47
2018-02-20T06:11:09.625Z,19.46
2018-02-20T06:12:09.634Z,19.46
2018-02-20T06:13:09.690Z,19.43
2018-02-20T06:14:09.646Z,19.55
2018-02-20T06:15:09.654Z,19.46
2018-02-20T06:16:09.661Z,19.51
2018-02-20T06:17:09.670Z,19.48
2018-02-20T06:18:09.677Z,19.51
2018-02-20T06:19:09.681Z,19.44
2018-02-20T06:20:09.689Z,19.61
2018-02-20T06:21:09.699Z,19.61
2018-02-20T06:22:09.706Z,19.63
2018-02-20T06:23:09.739Z,19.62
2018-02-20T06:24:09.716Z,19.61
2018-02-20T06:25:09.724Z,19.65
2018-02-20T06:26:09.731Z,19.63
2018-02-20T06:27:09.736Z,19.69
2018-02-20T06:28:09.746Z,19.68
2018-02-20T06:29:09.753Z,19.74
2018-02-20T06:30:09.759Z,19.73
2018-02-20T06:31:09.784Z,19.73
2018-02-20T06:32:09.775Z,19.77
2018-02-20T06:33:09.781Z,19.77
2018-02-20T06:34:09.789Z,19.68
2018-02-20T06:35:09.795Z,19.76
2018-02-20T06:36:09.802Z,19.77
2018-02-20T06:37:09.810Z,19.71
2018-02-20T06:54:18.080Z,19.83
2018-02-20T06:55:18.015Z,19.66
2018-02-20T06:57:11.450Z,19.61
2018-02-20T06:58:11.401Z,19.66
2018-02-20T07:00:04.794Z,19.66
2018-02-20T07:01:04.791Z,19.62
2018-02-20T07:02:58.248Z,19.62
2018-02-20T07:03:58.189Z,19.65
2018-02-20T07:05:51.587Z,19.66
2018-02-20T07:06:51.587Z,19.63
2018-02-20T07:08:45.033Z,19.61
2018-02-20T07:09:44.985Z,19.56
2018-02-20T07:11:38.394Z,19.65
2018-02-20T07:12:38.393Z,19.63
2018-02-20T07:14:31.836Z,19.66
2018-02-20T07:15:31.793Z,19.62
2018-02-20T07:50:07.256Z,19.39
2018-02-20T07:51:07.178Z,19.43
2018-02-20T07:53:00.608Z,19.44
2018-02-20T07:54:00.566Z,19.40
2018-02-20T07:55:53.952Z,19.48
2018-02-20T07:56:53.948Z,19.46
2018-02-20T07:58:47.387Z,19.46
2018-02-20T07:59:47.347Z,19.47
2018-02-20T08:00:36.937Z,19.46
2018-02-20T08:02:44.587Z,19.48
2018-02-20T08:03:44.536Z,19.44
2018-02-20T08:05:37.934Z,19.46
2018-02-20T08:06:37.939Z,19.46
2018-02-20T08:08:31.373Z,19.47
2018-02-20T19:16:15.306Z,17.64
2018-02-20T19:17:15.197Z,17.63
2018-02-20T19:19:08.627Z,17.63
2018-02-20T19:20:08.577Z,17.68
2018-02-20T19:21:08.592Z,17.66
2018-02-20T19:22:08.575Z,17.66
2018-02-20T19:23:08.574Z,17.70
2018-02-20T19:24:08.576Z,17.74
2018-02-20T19:25:08.575Z,17.79
2018-02-20T19:26:08.578Z,17.78
2018-02-20T19:27:08.579Z,17.84
2018-02-20T19:28:08.581Z,17.78
2018-02-20T19:29:08.583Z,17.95
2018-02-20T19:30:08.591Z,17.96
2018-02-20T19:31:09.188Z,17.92
2018-02-20T19:32:08.593Z,17.99
2018-02-20T19:33:08.597Z,18.02
2018-02-20T19:34:08.600Z,18.17
2018-02-20T19:35:08.607Z,18.12
2018-02-20T19:36:08.607Z,18.00
2018-02-20T19:37:08.647Z,18.14
2018-02-20T19:38:08.672Z,18.12
2018-02-20T19:39:08.622Z,18.11
2018-02-20T19:40:08.625Z,18.12
2018-02-20T19:41:08.629Z,18.07
2018-02-20T19:42:08.636Z,18.07
2018-02-20T19:43:08.638Z,18.15
2018-02-20T19:44:08.642Z,18.18
2018-02-20T19:45:08.648Z,18.14
2018-02-20T19:46:08.650Z,18.29
2018-02-20T19:47:08.659Z,18.20
2018-02-20T19:48:08.662Z,18.14
2018-02-20T19:49:08.667Z,18.17
2018-02-20T19:50:08.680Z,18.15
2018-02-20T19:51:08.675Z,18.18
2018-02-20T19:52:08.701Z,18.17
2018-02-20T19:53:08.685Z,18.20
2018-02-20T19:54:08.691Z,18.12
2018-02-20T19:55:08.697Z,18.12
2018-02-20T19:56:08.716Z,18.07
2018-02-20T19:57:08.754Z,18.08
2018-02-20T19:58:08.715Z,18.15
2018-02-20T19:59:08.714Z,18.08
2018-02-20T20:00:08.719Z,18.10
2018-02-20T20:01:08.739Z,18.08
2018-02-20T20:02:08.752Z,18.03
2018-02-20T20:03:08.734Z,18.00
2018-02-20T20:04:08.738Z,18.00
2018-02-20T20:05:08.744Z,17.99
2018-02-20T20:06:08.772Z,17.93
2018-02-20T20:07:08.753Z,17.99
2018-02-20T20:08:08.757Z,17.87
2018-02-20T20:09:08.761Z,17.87
2018-02-20T20:10:08.769Z,17.93
2018-02-20T20:11:08.772Z,17.96
2018-02-20T20:12:08.778Z,17.95
2018-02-20T20:13:08.785Z,17.93
2018-02-20T20:14:08.789Z,17.99
2018-02-20T20:15:08.789Z,17.97
2018-02-20T20:16:08.808Z,17.92
2018-02-20T20:17:08.802Z,17.82
2018-02-20T20:18:08.806Z,17.86
2018-02-20T20:19:08.809Z,17.84
2018-02-20T20:20:08.814Z,17.78
2018-02-20T20:21:08.822Z,17.79
2018-02-20T20:22:08.827Z,17.84
2018-02-20T20:23:08.826Z,17.75
2018-02-20T20:24:08.839Z,17.74
2018-02-20T20:25:08.837Z,17.77
2018-02-20T20:26:08.895Z,17.75
2018-02-20T20:27:08.846Z,17.71
2018-02-20T20:28:08.849Z,17.74
2018-02-20T20:29:08.854Z,17.77
2018-02-20T20:30:08.929Z,17.75
2018-02-20T20:31:08.865Z,17.77
2018-02-20T20:32:08.870Z,17.78
2018-02-20T20:33:08.874Z,17.74
2018-02-20T20:34:08.946Z,17.79
2018-02-20T20:35:08.898Z,17.68
2018-02-20T20:36:08.900Z,17.79
2018-02-20T20:37:08.894Z,17.75
2018-02-20T20:38:08.909Z,17.79
2018-02-20T20:39:08.920Z,17.81
2018-02-20T20:40:08.906Z,17.87
2018-02-20T20:41:08.912Z,17.82
2018-02-20T20:42:08.917Z,17.84
2018-02-20T20:43:08.985Z,17.93
2018-02-20T20:44:08.926Z,18.02
2018-02-20T20:45:08.941Z,17.90
2018-02-20T20:46:08.934Z,18.00
2018-02-20T20:47:08.943Z,18.03
2018-02-20T20:48:08.947Z,18.11
2018-02-20T20:49:08.951Z,18.02
2018-02-20T20:50:08.955Z,18.02
2018-02-20T20:51:08.962Z,17.99
2018-02-20T20:52:08.965Z,17.97
2018-02-20T20:53:08.973Z,18.02
2018-02-20T20:54:09.003Z,18.08
2018-02-20T20:55:08.979Z,18.10
2018-02-20T20:56:08.985Z,18.05
2018-02-20T20:57:08.989Z,18.05
2018-02-20T20:58:08.996Z,18.10
2018-02-20T20:59:09.007Z,18.14
2018-02-20T21:00:09.025Z,18.03
2018-02-20T21:01:09.025Z,18.10
2018-02-20T21:02:09.066Z,18.15
2018-02-20T21:03:09.021Z,18.11
2018-02-20T21:04:09.028Z,18.05
2018-02-20T21:05:09.757Z,18.12
2018-02-20T21:06:09.038Z,18.10
2018-02-20T21:07:09.042Z,18.15
2018-02-20T21:08:09.046Z,18.14
2018-02-20T21:09:09.056Z,18.12
2018-02-20T21:10:09.057Z,18.15
2018-02-20T21:11:09.061Z,18.17
2018-02-20T21:12:09.068Z,18.15
2018-02-20T21:13:09.072Z,18.20
2018-02-20T21:14:09.076Z,18.20
2018-02-20T21:15:09.083Z,18.29
2018-02-20T21:16:09.087Z,18.21
2018-02-20T21:19:42.051Z,18.37
2018-02-20T21:20:41.998Z,18.36
